X  Lukk Metar værinformasjon om luftfart     LIML Milano Linate Airport
Temperatur
23°C Temperatur
14°C Duggpunkt
57% Luftfuktighet



Vind
5 KM/T
3 MPT
1 M/S
3 KNP



60°
ØNØ
Nåværende forhold

Klart Klart
Trykk 1012.92 (hPa) - 29.91 (inHg)
Sikt 6.2 (mil) - 10 (km)
Flyplass
Flyplass-kode LIML

Plassering: Milano Linate Airport
Avstand: 100 (km)

Metar:
LIML 050750Z 06003KT 020V110 CAVOK 23/14 Q1013 NOSIG

Tid: 05-08-2020 09:50 CEST